Station: Point Avoid  

  Atmospheric Gas Attenuation - ITU Rec 676-11   ----------------- dB/100km -----------------
Date Time Temp RH % AH g/m3 Dew Point Wind Direction Speed kph Gust kph Barometer mB Rainfall Since 9am 24GHz 47GHz 76GHz 122GHz 134GHz 241GHz
08/05 12:00 16.1 71 9.73 10.8 17 26 1032.7 0 21.9 27.8 44.1 115.6 112.0 386.3
08/05 11:50 15.1 80 10.32 11.8 13 17 1032.9 0 23.2 29.1 47.1 123.7 121.7 419.9
08/05 11:40 14.8 80 10.13 11.5 20 22 1033 0 22.8 28.9 46.5 122.0 119.5 412.2
08/05 11:30 15.2 81 10.51 12 24 30 1033 0 23.6 29.4 47.9 125.7 124.2 428.6
08/05 11:20 15.4 71 9.33 10.3 13 19 1033.2 0 21.0 27.4 42.8 112.3 107.7 371.0
08/05 11:10 15.5 70 9.25 10.2 17 17 1033.3 0 20.9 27.2 42.5 111.3 106.5 366.8
08/05 11:00 15.6 70 9.31 10.2 19 26 1033.3 0 21.0 27.3 42.6 111.8 107.2 369.1
08/05 10:50 16 66 8.99 9.6 22 28 1033.2 0 20.3 26.6 41.1 107.8 102.4 352.4
08/05 10:40 16 66 8.99 9.6 19 22 1033.1 0 20.3 26.6 41.1 107.8 102.3 352.4
08/05 10:30 15.8 68 9.15 9.9 19 26 1033.2 0 20.6 26.9 41.9 109.8 104.7 360.7
08/05 10:20 15.7 71 9.5 10.4 19 22 1033.1 0 21.4 27.5 43.4 113.7 109.5 377.5
08/05 10:10 15.8 68 9.15 9.9 17 19 1033 0 20.6 26.9 41.9 109.7 104.7 360.7
08/05 10:00 15.7 68 9.1 9.8 17 22 1032.9 0 20.5 26.9 41.7 109.3 104.2 358.8
08/05 09:50 15.6 67 8.91 9.5 19 20 1032.9 0 20.1 26.6 41.0 107.4 101.8 350.4
08/05 09:40 15.4 67 8.8 9.3 19 22 1033 0 19.9 26.5 40.7 106.5 100.6 346.2
08/05 09:30 15.3 68 8.88 9.4 19 26 1032.9 0 20.1 26.6 41.0 107.5 101.8 350.4
08/05 09:20 15.3 69 9.01 9.6 17 20 1032.8 0 20.4 26.9 41.6 108.9 103.5 356.4
08/05 09:10 15.1 72 9.29 10.1 13 17 1032.8 0 21.0 27.4 42.8 112.2 107.5 370.4
08/05 09:00 14.9 73 9.3 10.1 19 26 1032.7 0 21.0 27.4 43.0 112.6 107.9 371.8
08/05 08:50 15.2 70 9.09 9.9 17 20 1032.7 0 20.5 27.0 41.9 109.9 104.7 360.5
08/05 08:40 15.1 69 8.9 9.4 13 13 1032.6 0 20.1 26.7 41.2 108.0 102.3 352.1
08/05 08:30 15 69 8.85 9.4 11 17 1032.6 0 20.0 26.7 41.1 107.6 101.8 350.2
08/05 08:20 14.9 68 8.67 9 11 15 1032.5 0 19.7 26.4 40.4 105.7 99.5 342.3
08/05 08:10 15 68 8.72 9.1 19 22 1032.3 0 19.8 26.5 40.5 106.1 100.0 344.1
08/05 08:00 14.9 68 8.67 9.1 20 28 1032.2 0 19.7 26.4 40.4 105.7 99.5 342.2
08/05 07:50 14.8 68 8.61 9.1 22 26 1032.2 0 19.5 26.3 40.2 105.2 98.8 339.8
08/05 07:40 14.9 69 8.79 9.4 19 22 1032.1 0 19.9 26.6 40.8 107.0 101.1 347.7
08/05 07:30 14.9 72 9.18 9.9 19 24 1032 0 20.7 27.2 42.4 111.2 106.3 365.9
08/05 07:20 14.6 71 8.88 9.4 11 11 1031.9 0 20.1 26.8 41.4 108.4 102.6 353.2
08/05 07:10 14.6 70 8.76 9.2 11 13 1031.9 0 19.9 26.6 40.9 107.1 101.0 347.6
08/05 07:00 14.7 69 8.69 9.1 13 15 1031.8 0 19.7 26.5 40.5 106.2 100.0 343.9
08/05 06:50 14.6 68 8.51 8.9 13 15 1031.8 0 19.3 26.2 39.9 104.4 97.7 336.0
08/05 06:40 14.7 67 8.44 8.6 13 15 1031.8 0 19.2 26.1 39.5 103.5 96.7 332.3
08/05 06:30 14.7 65 8.18 8.2 13 17 1031.7 0 18.6 25.7 38.5 100.7 93.3 320.4
08/05 06:20 14.7 67 8.44 8.6 15 17 1031.6 0 19.2 26.1 39.5 103.5 96.6 332.3
08/05 06:10 14.7 67 8.44 8.6 19 24 1031.6 0 19.2 26.1 39.5 103.5 96.6 332.3
08/05 06:00 14.7 70 8.81 9.3 19 20 1031.6 0 20.0 26.7 41.0 107.4 101.5 349.4
08/05 05:50 14.6 70 8.76 9.2 19 20 1031.5 0 19.9 26.6 40.9 107.0 101.0 347.5
08/05 05:40 14.7 72 9.07 9.7 17 19 1031.5 0 20.5 27.1 42.1 110.2 105.0 361.5
08/05 05:30 14.6 72 9.01 9.6 15 20 1031.5 0 20.4 27.0 41.9 109.7 104.3 359.2
08/05 05:20 14.5 72 8.96 9.5 13 13 1031.5 0 20.3 27.0 41.7 109.3 103.8 357.3
08/05 05:10 14.7 70 8.81 9.3 19 20 1031.5 0 20.0 26.7 41.0 107.4 101.5 349.4
08/05 05:00 14.6 68 8.51 8.8 15 19 1031.5 0 19.3 26.2 39.8 104.3 97.7 335.9
08/05 04:50 14.6 66 8.26 8.3 13 15 1031.4 0 18.8 25.8 38.8 101.7 94.4 324.4
08/05 04:40 14.6 66 8.26 8.3 19 20 1031.4 0 18.8 25.8 38.8 101.7 94.4 324.4
08/05 04:30 14.6 67 8.38 8.5 19 24 1031.4 0 19.1 26.0 39.3 102.9 96.0 329.9
08/05 04:20 14.5 67 8.33 8.6 13 15 1031.4 0 19.0 25.9 39.2 102.5 95.4 328.0
08/05 04:10 14.6 67 8.38 8.7 15 19 1031.5 0 19.1 26.0 39.3 102.9 96.0 329.9
08/05 04:00 14.6 69 8.63 9 17 24 1031.4 0 19.6 26.4 40.3 105.6 99.3 341.4
08/05 03:50 14.6 63 7.88 7.8 15 17 1031.5 0 18.0 25.2 37.4 97.7 89.5 307.1
08/05 03:40 14.6 62 7.76 7.4 19 20 1031.5 0 17.7 25.0 36.9 96.4 87.9 301.7
08/05 03:30 14.7 63 7.93 7.7 22 30 1031.5 0 18.1 25.2 37.5 98.1 90.0 309.0
08/05 03:20 14.7 67 8.44 8.6 19 24 1031.5 0 19.2 26.1 39.5 103.5 96.6 332.2
08/05 03:10 14.7 70 8.81 9.3 17 19 1031.5 0 20.0 26.7 41.0 107.4 101.5 349.4
08/05 03:00 14.6 70 8.76 9.2 20 30 1031.6 0 19.9 26.6 40.9 107.0 101.0 347.5
08/05 02:50 14.7 70 8.81 9.3 24 28 1031.5 0 20.0 26.7 41.0 107.4 101.5 349.4
08/05 02:40 14.8 68 8.61 8.9 20 24 1031.5 0 19.5 26.3 40.2 105.1 98.8 339.7
08/05 02:30 14.8 67 8.49 8.7 19 24 1031.5 0 19.3 26.1 39.7 103.9 97.2 334.1
08/05 02:20 14.8 66 8.36 8.5 22 24 1031.5 0 19.0 25.9 39.2 102.5 95.5 328.2
08/05 02:10 14.7 63 7.93 7.7 19 20 1031.5 0 18.1 25.2 37.5 98.1 90.0 309.0
08/05 02:00 14.7 65 8.18 8.2 17 22 1031.5 0 18.6 25.6 38.5 100.7 93.2 320.3
08/05 01:50 14.7 65 8.18 8.2 19 20 1031.6 0 18.6 25.6 38.5 100.7 93.3 320.4
08/05 01:40 14.7 63 7.93 7.9 24 28 1031.6 0 18.1 25.2 37.5 98.1 90.0 309.0
08/05 01:30 14.7 66 8.31 8.4 20 26 1031.7 0 18.9 25.9 39.0 102.1 95.0 326.3
08/05 01:20 14.6 66 8.26 8.3 22 24 1031.7 0 18.8 25.8 38.9 101.7 94.4 324.5
08/05 01:10 14.7 65 8.18 8.2 20 24 1031.7 0 18.6 25.7 38.5 100.7 93.3 320.4
08/05 01:00 14.8 65 8.23 8.3 20 28 1031.7 0 18.7 25.7 38.6 101.1 93.8 322.3
08/05 00:50 14.6 67 8.38 8.7 15 17 1031.7 0 19.1 26.0 39.3 103.0 96.0 330.0
08/05 00:40 14.7 67 8.44 8.6 22 26 1031.7 0 19.2 26.1 39.5 103.5 96.7 332.3
08/05 00:30 14.6 68 8.51 8.8 19 30 1031.7 0 19.3 26.2 39.9 104.4 97.7 335.9
08/05 00:20 14.6 67 8.38 8.5 19 22 1031.7 0 19.1 26.0 39.3 103.0 96.0 330.0
08/05 00:10 14.5 67 8.33 8.4 17 19 1031.7 0 19.0 25.9 39.2 102.6 95.5 328.1
08/05 00:00 14.4 68 8.41 8.6 13 19 1031.7 0 19.1 26.1 39.6 103.5 96.6 332.2
07/05 23:50 14.3 64 7.86 7.6 13 19 1031.9 0 18.0 25.3 37.4 97.9 89.6 307.5
07/05 23:40 14.3 63 7.74 7.3 17 19 1031.9 0 17.7 25.1 37.0 96.6 88.0 302.1
07/05 23:30 14.3 63 7.74 7.4 17 26 1031.9 0 17.7 25.1 37.0 96.6 88.0 302.1
07/05 23:20 14.3 60 7.37 6.8 20 22 1032.1 0 16.9 24.5 35.5 92.8 83.3 285.5
07/05 23:10 14.2 59 7.2 6.3 19 20 1032.2 0 16.6 24.3 34.9 91.2 81.3 278.4
07/05 23:00 14 60 7.24 6.4 20 28 1032.2 0 16.7 24.4 35.2 91.8 82.0 280.8
07/05 22:50 14.4 60 7.42 6.9 22 28 1032.2 0 17.0 24.6 35.7 93.2 83.9 287.4
07/05 22:40 14.4 60 7.42 6.9 17 20 1032.3 0 17.0 24.6 35.7 93.2 83.9 287.4
07/05 22:30 14.4 60 7.42 6.7 20 28 1032.4 0 17.0 24.6 35.7 93.2 83.9 287.5
07/05 22:20 14.5 60 7.46 6.8 22 26 1032.4 0 17.1 24.6 35.8 93.5 84.3 288.9
07/05 22:10 14.6 60 7.51 7.1 22 26 1032.3 0 17.2 24.6 36.0 93.9 84.8 290.7
07/05 22:00 14.6 63 7.88 7.6 19 24 1032.4 0 18.0 25.2 37.4 97.8 89.5 307.4
07/05 21:50 14.6 62 7.76 7.4 24 26 1032.4 0 17.7 25.0 36.9 96.5 88.0 302.0
07/05 21:40 14.5 63 7.84 7.7 19 22 1032.4 0 17.9 25.2 37.3 97.5 89.1 305.9
07/05 21:30 14.6 64 8.01 7.9 20 30 1032.4 0 18.3 25.4 37.9 99.1 91.2 313.2
07/05 21:20 14.6 62 7.76 7.4 20 22 1032.4 0 17.7 25.0 36.9 96.5 88.0 302.0
07/05 21:10 14.6 60 7.51 7.1 20 22 1032.4 0 17.2 24.6 36.0 93.9 84.8 290.8
07/05 21:00 14.6 60 7.51 6.9 20 28 1032.4 0 17.2 24.6 36.0 93.9 84.8 290.8
07/05 20:50 14.6 58 7.26 6.4 20 22 1032.5 0 16.7 24.3 35.0 91.4 81.7 279.7
07/05 20:40 14.7 56 7.05 6.2 22 28 1032.5 0 16.2 23.9 34.2 89.1 78.9 270.1
07/05 20:30 14.6 58 7.26 6.4 24 32 1032.4 0 16.7 24.3 35.0 91.4 81.6 279.7
07/05 20:20 14.6 62 7.76 7.4 19 22 1032.4 0 17.7 25.0 36.9 96.5 88.0 302.0
07/05 20:10 14.6 60 7.51 7.1 19 20 1032.4 0 17.2 24.6 36.0 93.9 84.8 290.8
07/05 20:00 14.5 59 7.34 6.6 17 22 1032.5 0 16.9 24.4 35.4 92.3 82.8 283.6
07/05 19:50 14.5 59 7.34 6.6 22 26 1032.4 0 16.9 24.4 35.3 92.3 82.8 283.6
07/05 19:40 14.5 59 7.34 6.6 17 22 1032.4 0 16.9 24.4 35.3 92.3 82.8 283.6
07/05 19:30 14.6 57 7.13 6.2 20 28 1032.3 0 16.4 24.1 34.5 90.0 80.0 273.9

Last Refresh: 08-May-2026 12:08:52

Bureau of Meteorology